Time;durP1;ratioP1;P1;durP2;ratioP2;P2;SDS_P1;SDS_P2;PMS_P1;PMS_P2;Temp;Humidity;BMP_temperature;BMP_pressure;BME280_temperature;BME280_humidity;BME280_pressure;Samples;Min_cycle;Max_cycle;Signal;HPM_P1;HPM_P2
2021/12/15 00:02:20;;;;;;;0.53;0.37;;;9.00;99.90;;;;;;5074645;28;20740;-73
2021/12/15 00:04:52;;;;;;;0.60;0.60;;;9.10;99.90;;;;;;5074536;28;20215;-73
2021/12/15 00:07:20;;;;;;;1.30;1.20;;;9.10;99.90;;;;;;5074195;28;20664;-73
2021/12/15 00:09:46;;;;;;;6.30;1.53;;;9.10;99.90;;;;;;5074298;28;20172;-73
2021/12/15 00:12:13;;;;;;;1.97;1.73;;;9.10;99.90;;;;;;5074552;28;20694;-72
2021/12/15 00:14:41;;;;;;;0.40;0.40;;;9.10;99.90;;;;;;5073989;28;20208;-73
2021/12/15 00:17:07;;;;;;;0.63;0.63;;;9.10;99.90;;;;;;5072843;28;20177;-72
2021/12/15 00:19:34;;;;;;;1.53;1.43;;;9.10;99.90;;;;;;5067978;28;20173;-72
2021/12/15 00:21:59;;;;;;;0.90;0.90;;;9.20;99.90;;;;;;5067460;28;20176;-71
2021/12/15 00:24:26;;;;;;;0.90;0.90;;;9.20;99.90;;;;;;5074121;28;20211;-73
2021/12/15 00:26:53;;;;;;;2.10;1.33;;;9.20;99.90;;;;;;5073214;28;20176;-72
2021/12/15 00:29:19;;;;;;;0.80;0.80;;;9.20;99.90;;;;;;5074109;28;20180;-72
2021/12/15 00:31:46;;;;;;;3.03;1.07;;;9.20;99.90;;;;;;5073804;28;20177;-73
2021/12/15 00:34:13;;;;;;;1.40;0.50;;;9.20;99.90;;;;;;5073993;28;20223;-73
2021/12/15 00:36:39;;;;;;;0.67;0.67;;;9.20;99.90;;;;;;5073729;28;20172;-73
2021/12/15 00:39:06;;;;;;;1.00;0.93;;;9.20;99.90;;;;;;5069478;28;20266;-74
2021/12/15 00:41:32;;;;;;;1.53;1.43;;;9.20;99.90;;;;;;5054538;28;20551;-73
2021/12/15 00:43:58;;;;;;;0.80;0.80;;;9.20;99.90;;;;;;5074081;28;20200;-73
2021/12/15 00:46:24;;;;;;;0.77;0.77;;;9.20;99.90;;;;;;5068464;28;20544;-73
2021/12/15 00:48:50;;;;;;;0.47;0.47;;;9.20;99.90;;;;;;5073181;28;20168;-74
2021/12/15 00:51:16;;;;;;;0.10;0.10;;;9.30;99.90;;;;;;5073621;28;20187;-74
2021/12/15 00:53:42;;;;;;;3.90;1.03;;;9.30;99.90;;;;;;5071898;28;20204;-75
2021/12/15 00:56:08;;;;;;;1.23;1.13;;;9.30;99.90;;;;;;5073096;28;20705;-74
2021/12/15 00:58:33;;;;;;;0.60;0.60;;;9.30;99.90;;;;;;5073674;28;20184;-72
2021/12/15 01:01:01;;;;;;;0.80;0.80;;;9.40;99.90;;;;;;5073527;28;20716;-73
2021/12/15 01:03:29;;;;;;;0.50;0.50;;;9.40;99.90;;;;;;5073470;28;20192;-73
2021/12/15 01:06:03;;;;;;;0.13;0.13;;;9.40;99.90;;;;;;5072993;28;20196;-75
2021/12/15 01:08:30;;;;;;;7.63;1.83;;;9.40;99.90;;;;;;5073315;28;20183;-73
2021/12/15 01:21:43;;;;;;;0.87;0.77;;;9.30;99.90;;;;;;5073419;28;20225;-73
2021/12/15 01:24:10;;;;;;;0.20;0.17;;;9.30;99.90;;;;;;5073032;28;20196;-72
2021/12/15 01:26:35;;;;;;;0.30;0.30;;;9.30;99.90;;;;;;5072743;28;20568;-72
2021/12/15 01:29:01;;;;;;;1.70;1.60;;;9.30;99.90;;;;;;5071672;28;20216;-72
2021/12/15 01:31:27;;;;;;;0.83;0.83;;;9.30;99.90;;;;;;5072629;28;20179;-73
2021/12/15 01:33:53;;;;;;;0.20;0.20;;;9.20;99.90;;;;;;5072721;28;20208;-73
2021/12/15 01:36:18;;;;;;;0.20;0.20;;;9.20;99.90;;;;;;5072532;28;20210;-72
2021/12/15 01:38:46;;;;;;;1.63;1.53;;;9.20;99.90;;;;;;5070648;28;20179;-72
2021/12/15 01:41:20;;;;;;;0.00;0.00;;;9.10;99.90;;;;;;5052954;28;20258;-72
2021/12/15 01:49:31;;;;;;;0.63;0.33;;;9.20;99.90;;;;;;5060909;28;20238;-74
2021/12/15 01:52:02;;;;;;;0.73;0.47;;;9.20;99.90;;;;;;5072639;28;20717;-73
2021/12/15 01:54:29;;;;;;;0.30;0.30;;;9.20;99.90;;;;;;5059022;28;20571;-73
2021/12/15 01:56:55;;;;;;;3.03;1.90;;;9.20;99.90;;;;;;5072524;28;20573;-73
2021/12/15 01:59:25;;;;;;;0.50;0.50;;;9.20;99.90;;;;;;5072383;28;20295;-73
2021/12/15 02:01:51;;;;;;;0.53;0.20;;;9.10;99.90;;;;;;5071600;28;20306;-73
2021/12/15 02:04:19;;;;;;;0.20;0.20;;;9.20;99.90;;;;;;5072658;28;20287;-73
2021/12/15 02:06:46;;;;;;;0.47;0.47;;;9.10;99.90;;;;;;5072256;28;20183;-72
2021/12/15 02:09:21;;;;;;;0.57;0.57;;;9.10;99.90;;;;;;5070894;28;20198;-72
2021/12/15 02:11:47;;;;;;;2.90;0.43;;;9.10;99.90;;;;;;5061585;28;20172;-73
2021/12/15 02:14:13;;;;;;;3.53;1.30;;;9.10;99.90;;;;;;5072162;28;20684;-72
2021/12/15 02:16:38;;;;;;;1.07;0.57;;;9.00;99.90;;;;;;5071905;28;20179;-72
2021/12/15 02:19:04;;;;;;;0.40;0.40;;;9.00;99.90;;;;;;5071609;28;20191;-72
2021/12/15 02:21:30;;;;;;;0.03;0.03;;;8.90;99.90;;;;;;5071884;28;20177;-73
2021/12/15 02:23:58;;;;;;;1.67;1.57;;;8.90;99.90;;;;;;5070536;28;20196;-72
2021/12/15 02:26:27;;;;;;;0.20;0.20;;;8.90;99.90;;;;;;5070148;28;20176;-73
2021/12/15 02:28:56;;;;;;;0.20;0.20;;;8.90;99.90;;;;;;5071680;28;20172;-73
2021/12/15 02:34:20;;;;;;;0.20;0.20;;;8.90;99.90;;;;;;5071735;28;20222;-72
2021/12/15 02:37:17;;;;;;;2.27;2.13;;;8.90;99.90;;;;;;5071175;28;20180;-73
2021/12/15 02:39:48;;;;;;;0.53;0.53;;;8.90;99.90;;;;;;5060558;28;20407;-72
2021/12/15 02:42:14;;;;;;;0.40;0.40;;;8.90;99.90;;;;;;5058298;28;20184;-73
2021/12/15 02:44:43;;;;;;;0.10;0.10;;;8.90;99.90;;;;;;5071617;28;20238;-73
2021/12/15 02:47:10;;;;;;;4.53;0.40;;;8.90;99.90;;;;;;5066243;28;20556;-72
2021/12/15 02:49:36;;;;;;;1.40;1.07;;;8.90;99.90;;;;;;5071270;28;20188;-73
2021/12/15 02:52:05;;;;;;;3.37;0.40;;;8.90;99.90;;;;;;5069466;28;20226;-74
2021/12/15 02:54:30;;;;;;;0.53;0.53;;;9.00;99.90;;;;;;5071083;28;20760;-73
2021/12/15 02:57:04;;;;;;;1.00;1.00;;;9.00;99.90;;;;;;5070978;28;20257;-73
2021/12/15 02:59:38;;;;;;;0.10;0.10;;;9.00;99.90;;;;;;5071282;28;20543;-73
2021/12/15 03:04:52;;;;;;;0.40;0.40;;;9.00;99.90;;;;;;5071447;28;20207;-73
2021/12/15 03:07:36;;;;;;;0.67;0.67;;;9.00;99.90;;;;;;5070937;28;20642;-73
2021/12/15 03:15:34;;;;;;;0.17;0.17;;;9.00;99.90;;;;;;5071261;28;20713;-73
2021/12/15 03:18:05;;;;;;;0.27;0.27;;;9.00;99.90;;;;;;5070737;28;20651;-73
2021/12/15 03:20:46;;;;;;;2.23;1.37;;;9.00;99.90;;;;;;5070957;28;20183;-73
2021/12/15 03:23:14;;;;;;;0.83;0.53;;;8.90;99.90;;;;;;5070807;28;20177;-73
2021/12/15 03:25:39;;;;;;;1.03;1.03;;;8.90;99.90;;;;;;5069646;28;20188;-73
2021/12/15 03:36:09;;;;;;;0.30;0.30;;;8.50;99.90;;;;;;5070854;28;20202;-72
2021/12/15 03:38:36;;;;;;;1.13;1.03;;;8.50;99.90;;;;;;5070304;28;20194;-72
2021/12/15 03:41:04;;;;;;;0.80;0.80;;;8.40;99.90;;;;;;5051239;28;20239;-73
2021/12/15 03:43:31;;;;;;;2.23;1.80;;;8.30;99.90;;;;;;5066219;28;20246;-72
2021/12/15 03:46:09;;;;;;;0.80;0.80;;;8.30;99.90;;;;;;5067723;28;20294;-72
2021/12/15 03:48:38;;;;;;;0.50;0.50;;;8.30;99.90;;;;;;5069322;28;20177;-73
2021/12/15 03:51:04;;;;;;;0.00;0.00;;;8.30;99.90;;;;;;5071152;28;20253;-74
2021/12/15 03:53:30;;;;;;;0.60;0.60;;;8.30;99.90;;;;;;5070949;28;20203;-74
2021/12/15 03:55:57;;;;;;;2.80;0.40;;;8.30;99.90;;;;;;5069200;28;20229;-73
2021/12/15 03:58:25;;;;;;;0.97;0.97;;;8.20;99.90;;;;;;5070832;28;20211;-73
2021/12/15 04:00:56;;;;;;;1.50;1.40;;;8.30;99.90;;;;;;5070573;28;20177;-74
2021/12/15 04:03:24;;;;;;;1.83;1.73;;;8.20;99.90;;;;;;5069492;28;20187;-74
2021/12/15 04:05:50;;;;;;;4.90;1.37;;;8.30;99.90;;;;;;5070349;28;20270;-73
2021/12/15 04:08:15;;;;;;;0.03;0.03;;;8.30;99.90;;;;;;5070819;28;20188;-74
2021/12/15 04:10:41;;;;;;;0.47;0.33;;;8.30;99.90;;;;;;5070140;28;20213;-73
2021/12/15 04:13:09;;;;;;;0.77;0.77;;;8.30;99.90;;;;;;5070430;28;20259;-73
2021/12/15 04:15:43;;;;;;;2.00;1.90;;;8.30;99.90;;;;;;5070476;28;20208;-73
2021/12/15 04:18:09;;;;;;;1.43;0.63;;;8.30;99.90;;;;;;5070642;28;20179;-73
2021/12/15 04:20:37;;;;;;;0.67;0.67;;;8.30;99.90;;;;;;5070395;28;20177;-74
2021/12/15 04:23:06;;;;;;;2.80;2.53;;;8.20;99.90;;;;;;5070798;28;20566;-74
2021/12/15 04:25:35;;;;;;;0.93;0.93;;;8.20;99.90;;;;;;5072713;28;20209;-73
2021/12/15 04:28:08;;;;;;;0.83;0.77;;;8.30;99.90;;;;;;5074323;28;20257;-73
2021/12/15 04:30:38;;;;;;;0.67;0.67;;;8.30;99.90;;;;;;5074300;28;20173;-73
2021/12/15 04:33:12;;;;;;;0.30;0.30;;;8.30;99.90;;;;;;5074347;28;20186;-73
2021/12/15 04:35:39;;;;;;;0.30;0.30;;;8.30;99.90;;;;;;5073791;28;20282;-72
2021/12/15 04:38:05;;;;;;;0.53;0.53;;;8.20;99.90;;;;;;5073769;28;20187;-73
2021/12/15 04:40:31;;;;;;;3.83;1.67;;;8.20;99.90;;;;;;5057586;28;20227;-73
2021/12/15 04:42:58;;;;;;;0.13;0.13;;;8.20;99.90;;;;;;5064691;28;20208;-73
2021/12/15 04:45:24;;;;;;;0.27;0.23;;;8.20;99.90;;;;;;5073923;28;20224;-72
2021/12/15 04:47:51;;;;;;;1.40;0.73;;;8.20;99.90;;;;;;5068568;28;20678;-73
2021/12/15 04:50:20;;;;;;;0.53;0.53;;;8.20;99.90;;;;;;5072514;28;20184;-73
2021/12/15 04:52:45;;;;;;;0.73;0.63;;;8.20;99.90;;;;;;5073789;28;20190;-73
2021/12/15 04:55:11;;;;;;;1.03;1.03;;;8.10;99.90;;;;;;5073746;28;20648;-73
2021/12/15 04:57:37;;;;;;;0.10;0.10;;;8.10;99.90;;;;;;5073560;28;20603;-73
2021/12/15 05:00:10;;;;;;;0.30;0.30;;;8.10;99.90;;;;;;5073789;28;20176;-73
2021/12/15 05:02:36;;;;;;;0.83;0.83;;;8.10;99.90;;;;;;5073910;28;20263;-72
2021/12/15 05:05:03;;;;;;;0.20;0.20;;;8.10;99.90;;;;;;5075799;28;20235;-73
2021/12/15 05:07:28;;;;;;;0.10;0.10;;;8.10;99.90;;;;;;5073375;28;20604;-73
2021/12/15 05:09:54;;;;;;;0.40;0.40;;;8.10;99.90;;;;;;5073455;28;20223;-73
2021/12/15 05:12:21;;;;;;;1.43;1.03;;;8.10;99.90;;;;;;5071698;28;20571;-73
2021/12/15 05:14:47;;;;;;;0.37;0.33;;;8.20;99.90;;;;;;5073125;28;20284;-74
2021/12/15 05:17:13;;;;;;;1.23;1.13;;;8.20;99.90;;;;;;5072880;28;20180;-74
2021/12/15 05:19:39;;;;;;;0.30;0.30;;;8.20;99.90;;;;;;5072979;28;20639;-74
2021/12/15 05:22:05;;;;;;;1.50;1.20;;;8.20;99.90;;;;;;5073099;28;20187;-73
2021/12/15 05:24:31;;;;;;;1.53;1.37;;;8.20;99.90;;;;;;5071880;28;20217;-74
2021/12/15 05:27:14;;;;;;;0.90;0.67;;;8.30;99.90;;;;;;5073183;28;20712;-73
2021/12/15 05:29:42;;;;;;;0.60;0.60;;;8.30;99.90;;;;;;5073107;28;20674;-74
2021/12/15 05:32:09;;;;;;;2.50;2.13;;;8.30;99.90;;;;;;5069165;28;20654;-73
2021/12/15 05:34:36;;;;;;;0.47;0.47;;;8.30;99.90;;;;;;5062856;28;20511;-73
2021/12/15 05:37:04;;;;;;;1.13;0.93;;;8.30;99.90;;;;;;5071675;28;20181;-74
2021/12/15 05:39:30;;;;;;;1.37;1.27;;;8.30;99.90;;;;;;5065292;28;20274;-74
2021/12/15 05:41:56;;;;;;;0.40;0.40;;;8.30;99.90;;;;;;5061428;28;20379;-73
2021/12/15 05:44:22;;;;;;;0.50;0.50;;;8.20;99.90;;;;;;5072458;28;20710;-72
2021/12/15 05:46:50;;;;;;;0.40;0.40;;;8.20;99.90;;;;;;5067767;28;20180;-72
2021/12/15 05:49:16;;;;;;;2.20;2.10;;;8.20;99.90;;;;;;5073051;28;20181;-72
2021/12/15 05:51:42;;;;;;;1.03;0.63;;;8.20;99.90;;;;;;5072780;28;20187;-73
2021/12/15 05:54:08;;;;;;;0.50;0.50;;;8.10;99.90;;;;;;5073196;28;20231;-72
2021/12/15 05:56:34;;;;;;;1.03;0.77;;;8.10;99.90;;;;;;5072335;28;20259;-72
2021/12/15 05:59:00;;;;;;;1.03;1.03;;;8.10;99.90;;;;;;5073086;28;20183;-72
2021/12/15 06:01:28;;;;;;;0.60;0.60;;;8.10;99.90;;;;;;5072707;28;20187;-72
2021/12/15 06:03:53;;;;;;;0.10;0.10;;;8.10;99.90;;;;;;5065055;28;20207;-73
2021/12/15 06:06:19;;;;;;;0.63;0.63;;;8.10;99.90;;;;;;5042662;28;20207;-73
2021/12/15 06:08:46;;;;;;;0.87;0.87;;;8.10;99.90;;;;;;5059152;28;20194;-73
2021/12/15 06:11:13;;;;;;;0.63;0.63;;;8.10;99.90;;;;;;5070492;28;20188;-72
2021/12/15 06:13:38;;;;;;;1.73;1.33;;;8.10;99.90;;;;;;5070498;28;20242;-72
2021/12/15 06:16:05;;;;;;;0.40;0.40;;;8.10;99.90;;;;;;5071480;28;20214;-73
2021/12/15 06:18:32;;;;;;;0.63;0.63;;;8.10;99.90;;;;;;5070558;28;20229;-73
2021/12/15 06:20:58;;;;;;;1.10;0.97;;;8.10;99.90;;;;;;5071069;28;20180;-72
2021/12/15 06:23:24;;;;;;;0.40;0.40;;;8.00;99.90;;;;;;5071587;28;20693;-73
2021/12/15 06:25:57;;;;;;;4.37;0.87;;;8.00;99.90;;;;;;5071330;28;20275;-73
2021/12/15 06:28:24;;;;;;;0.60;0.60;;;8.00;99.90;;;;;;5071616;28;20176;-74
2021/12/15 06:30:50;;;;;;;0.50;0.50;;;8.00;99.90;;;;;;5070234;28;20195;-73
2021/12/15 06:33:17;;;;;;;3.50;1.90;;;8.00;99.90;;;;;;5071228;28;20276;-72
2021/12/15 06:35:52;;;;;;;0.40;0.40;;;8.10;99.90;;;;;;5071322;28;20557;-72
2021/12/15 06:38:20;;;;;;;1.43;0.87;;;8.00;99.90;;;;;;5071628;28;20259;-72
2021/12/15 06:40:45;;;;;;;1.17;1.07;;;8.00;99.90;;;;;;5052150;28;20636;-72
2021/12/15 06:43:11;;;;;;;0.10;0.10;;;8.10;99.90;;;;;;5064149;28;20186;-72
2021/12/15 06:45:49;;;;;;;0.80;0.80;;;8.10;99.90;;;;;;5069826;28;20931;-72
2021/12/15 06:59:11;;;;;;;0.10;0.10;;;8.10;99.90;;;;;;5070958;28;20547;-71
2021/12/15 07:01:37;;;;;;;0.27;0.27;;;8.10;99.90;;;;;;5071036;28;20180;-73
2021/12/15 07:04:02;;;;;;;0.20;0.20;;;8.10;99.90;;;;;;5069788;28;20203;-72
2021/12/15 07:06:28;;;;;;;0.60;0.60;;;8.20;99.90;;;;;;5069321;28;20225;-72
2021/12/15 07:08:53;;;;;;;0.63;0.63;;;8.20;99.90;;;;;;5070893;28;20193;-73
2021/12/15 07:11:19;;;;;;;0.30;0.23;;;8.20;99.90;;;;;;5068635;28;20192;-74
2021/12/15 07:13:45;;;;;;;0.40;0.40;;;8.20;99.90;;;;;;5071063;28;20196;-74
2021/12/15 07:16:12;;;;;;;0.10;0.10;;;8.20;99.90;;;;;;5070572;28;20295;-73
2021/12/15 07:18:45;;;;;;;0.53;0.53;;;8.20;99.90;;;;;;5069144;28;20203;-74
2021/12/15 07:21:21;;;;;;;0.10;0.10;;;8.20;99.90;;;;;;5069454;28;20219;-74
2021/12/15 07:23:47;;;;;;;0.93;0.77;;;8.20;99.90;;;;;;5070865;28;20195;-74
2021/12/15 07:26:14;;;;;;;0.70;0.53;;;8.10;99.90;;;;;;5070313;28;20168;-74
2021/12/15 07:28:40;;;;;;;2.20;1.60;;;8.10;99.90;;;;;;5070407;28;20199;-74
2021/12/15 07:31:07;;;;;;;0.20;0.20;;;8.10;99.90;;;;;;5070793;28;20199;-74
2021/12/15 07:33:33;;;;;;;0.30;0.30;;;8.10;99.90;;;;;;5070470;28;20582;-74
2021/12/15 07:35:59;;;;;;;1.20;0.83;;;8.00;99.90;;;;;;5070435;28;20200;-74
2021/12/15 07:38:25;;;;;;;2.00;1.03;;;8.00;99.90;;;;;;5070825;28;20180;-75
2021/12/15 07:40:51;;;;;;;0.57;0.57;;;8.10;99.90;;;;;;5051690;28;20259;-73
2021/12/15 07:43:24;;;;;;;0.20;0.20;;;8.10;99.90;;;;;;5065537;28;20246;-74
2021/12/15 07:45:56;;;;;;;0.43;0.43;;;8.10;99.90;;;;;;5068412;28;20188;-74
2021/12/15 07:48:24;;;;;;;0.53;0.53;;;8.10;99.90;;;;;;5067547;28;20563;-74
2021/12/15 07:50:52;;;;;;;0.30;0.30;;;8.10;99.90;;;;;;5069633;28;20192;-71
2021/12/15 07:53:19;;;;;;;1.77;1.63;;;8.10;99.90;;;;;;5070188;28;20309;-73
2021/12/15 07:55:46;;;;;;;0.97;0.97;;;8.10;99.90;;;;;;5070399;28;20329;-72
2021/12/15 07:58:12;;;;;;;0.60;0.60;;;8.10;99.90;;;;;;5069033;28;20190;-72
2021/12/15 08:00:40;;;;;;;1.20;1.17;;;8.20;99.90;;;;;;5071561;28;20188;-72
2021/12/15 08:03:07;;;;;;;4.33;1.60;;;8.10;99.90;;;;;;5074039;28;20188;-73
2021/12/15 08:05:34;;;;;;;2.50;2.30;;;8.20;99.90;;;;;;5062517;28;20211;-72
2021/12/15 08:08:00;;;;;;;0.47;0.47;;;8.20;99.90;;;;;;5072278;28;20259;-73
2021/12/15 08:10:25;;;;;;;0.20;0.20;;;8.20;99.90;;;;;;5073192;28;20267;-72
2021/12/15 08:12:52;;;;;;;1.50;1.40;;;8.20;99.90;;;;;;5074390;28;20192;-74
2021/12/15 08:15:18;;;;;;;0.10;0.10;;;8.20;99.90;;;;;;5072597;28;20211;-72
2021/12/15 08:17:51;;;;;;;0.30;0.30;;;8.20;99.90;;;;;;5073840;28;20189;-73
2021/12/15 08:20:18;;;;;;;1.53;1.43;;;8.20;99.90;;;;;;5074041;28;20189;-72
2021/12/15 08:22:44;;;;;;;1.07;1.07;;;8.20;99.90;;;;;;5072567;28;20208;-73
2021/12/15 08:25:12;;;;;;;1.03;1.03;;;8.20;99.90;;;;;;5073780;28;20228;-73
2021/12/15 08:27:38;;;;;;;0.50;0.50;;;8.20;99.90;;;;;;5073648;28;20666;-73
2021/12/15 08:30:08;;;;;;;2.43;0.93;;;8.20;99.90;;;;;;5073986;28;20195;-72
2021/12/15 08:32:33;;;;;;;0.53;0.53;;;8.30;99.90;;;;;;5074044;28;20212;-73
2021/12/15 08:34:59;;;;;;;2.07;0.53;;;8.30;99.90;;;;;;5073339;28;20725;-73
2021/12/15 08:37:24;;;;;;;0.20;0.20;;;8.30;99.90;;;;;;5074555;28;20253;-73
2021/12/15 08:39:50;;;;;;;0.00;0.00;;;8.30;99.90;;;;;;5062431;28;20188;-72
2021/12/15 08:42:16;;;;;;;0.43;0.43;;;8.30;99.90;;;;;;5060734;28;20272;-73
2021/12/15 08:44:42;;;;;;;0.00;0.00;;;8.30;99.90;;;;;;5073763;28;20746;-72
2021/12/15 08:47:09;;;;;;;0.23;0.23;;;8.40;99.90;;;;;;5068043;28;20207;-73
2021/12/15 08:49:36;;;;;;;0.30;0.30;;;8.40;99.90;;;;;;5071951;28;20184;-72
2021/12/15 08:52:03;;;;;;;0.27;0.27;;;8.40;99.90;;;;;;5073657;28;20552;-72
2021/12/15 08:54:29;;;;;;;2.43;1.10;;;8.40;99.90;;;;;;5073280;28;20228;-72
2021/12/15 08:56:55;;;;;;;0.27;0.27;;;8.50;99.90;;;;;;5073205;28;20610;-73
2021/12/15 08:59:21;;;;;;;1.27;0.90;;;8.50;99.90;;;;;;5073078;28;20187;-72
2021/12/15 09:01:47;;;;;;;0.30;0.30;;;8.50;99.90;;;;;;5073341;28;20217;-72
2021/12/15 09:04:14;;;;;;;0.10;0.10;;;8.60;99.90;;;;;;5073132;28;20224;-71
2021/12/15 09:06:41;;;;;;;1.23;0.70;;;8.60;99.90;;;;;;5072903;28;20192;-72
2021/12/15 09:09:09;;;;;;;0.77;0.77;;;8.70;99.90;;;;;;5064934;28;20196;-72
2021/12/15 09:11:36;;;;;;;0.00;0.00;;;8.70;99.90;;;;;;5072773;28;20187;-73
2021/12/15 09:14:03;;;;;;;0.70;0.70;;;8.70;99.90;;;;;;5065239;28;20225;-70
2021/12/15 09:16:32;;;;;;;0.37;0.37;;;8.70;99.90;;;;;;5058823;28;20203;-71
2021/12/15 09:18:59;;;;;;;0.23;0.23;;;8.70;99.90;;;;;;5053784;28;20231;-72
2021/12/15 09:21:29;;;;;;;2.00;1.43;;;8.70;99.90;;;;;;5059077;28;20727;-70
2021/12/15 09:23:56;;;;;;;0.53;0.40;;;8.70;99.90;;;;;;5056114;28;20208;-71
2021/12/15 09:26:22;;;;;;;0.10;0.10;;;8.80;99.90;;;;;;5060700;28;20188;-71
2021/12/15 09:28:49;;;;;;;1.07;0.83;;;8.80;99.90;;;;;;5072330;28;20180;-71
2021/12/15 09:31:16;;;;;;;0.40;0.40;;;8.80;99.90;;;;;;5064426;28;20183;-72
2021/12/15 09:33:47;;;;;;;0.80;0.23;;;8.80;99.90;;;;;;5065837;28;20216;-71
2021/12/15 09:36:15;;;;;;;0.40;0.27;;;8.80;99.90;;;;;;5061969;28;20291;-71
2021/12/15 09:38:44;;;;;;;0.20;0.20;;;8.90;99.90;;;;;;5070860;28;20184;-71
2021/12/15 09:41:12;;;;;;;0.97;0.73;;;9.00;99.90;;;;;;5050383;28;20188;-71
2021/12/15 09:43:39;;;;;;;0.20;0.20;;;9.10;99.90;;;;;;5069763;28;20242;-72
2021/12/15 09:57:14;;;;;;;0.33;0.33;;;9.50;99.90;;;;;;5071768;28;20751;-71
2021/12/15 10:02:35;;;;;;;0.10;0.10;;;9.50;99.90;;;;;;5071840;28;20186;-71
2021/12/15 10:05:14;;;;;;;1.43;0.93;;;9.40;99.90;;;;;;5071806;28;20290;-71
2021/12/15 10:11:00;;;;;;;0.30;0.30;;;9.40;99.90;;;;;;5072576;28;20191;-72
2021/12/15 10:19:31;;;;;;;0.30;0.30;;;9.40;99.90;;;;;;5071978;28;20292;-71
2021/12/15 10:21:57;;;;;;;0.10;0.10;;;9.50;99.90;;;;;;5070635;28;20686;-72
2021/12/15 10:24:32;;;;;;;0.10;0.10;;;9.50;99.90;;;;;;5071503;28;20506;-71
2021/12/15 10:27:00;;;;;;;0.20;0.20;;;9.50;99.90;;;;;;5071123;28;20627;-71
2021/12/15 10:29:25;;;;;;;0.17;0.17;;;9.50;99.90;;;;;;5071326;28;20176;-71
2021/12/15 10:32:05;;;;;;;3.10;1.03;;;9.50;99.90;;;;;;5071516;28;20674;-72
2021/12/15 10:34:31;;;;;;;0.20;0.20;;;9.50;99.90;;;;;;5071223;28;20669;-72
2021/12/15 10:36:57;;;;;;;0.17;0.17;;;9.50;99.90;;;;;;5069799;28;20231;-72
2021/12/15 10:39:24;;;;;;;0.10;0.10;;;9.50;99.90;;;;;;5064224;28;20177;-73
2021/12/15 10:41:53;;;;;;;1.20;1.17;;;9.50;99.90;;;;;;5053314;28;20172;-72
2021/12/15 10:44:26;;;;;;;1.50;0.67;;;9.50;99.90;;;;;;5070972;28;20207;-72
2021/12/15 10:46:56;;;;;;;0.37;0.37;;;9.60;99.90;;;;;;5065878;28;20550;-71
2021/12/15 10:49:25;;;;;;;0.40;0.40;;;9.60;99.90;;;;;;5071372;28;20180;-72
2021/12/15 10:52:07;;;;;;;0.10;0.10;;;9.60;99.90;;;;;;5067786;28;20191;-73
2021/12/15 10:54:49;;;;;;;0.73;0.73;;;9.60;99.90;;;;;;5054980;28;20258;-71
2021/12/15 10:57:31;;;;;;;0.57;0.57;;;9.60;99.90;;;;;;5062136;28;20173;-72
2021/12/15 10:59:59;;;;;;;0.43;0.43;;;9.70;99.90;;;;;;5062570;28;20176;-71
2021/12/15 11:02:28;;;;;;;0.27;0.27;;;9.70;99.90;;;;;;5070776;28;20582;-71
2021/12/15 11:05:00;;;;;;;0.83;0.83;;;9.70;99.90;;;;;;5071083;28;20192;-72
2021/12/15 11:07:37;;;;;;;0.80;0.80;;;9.80;99.90;;;;;;5070428;28;20238;-71
2021/12/15 11:10:10;;;;;;;1.00;0.93;;;9.70;99.90;;;;;;5071232;28;20226;-72
2021/12/15 11:12:51;;;;;;;0.10;0.10;;;9.70;99.90;;;;;;5069374;28;20189;-71
2021/12/15 11:15:22;;;;;;;0.20;0.20;;;9.70;99.90;;;;;;5070923;28;20207;-71
2021/12/15 11:17:52;;;;;;;3.00;1.43;;;9.80;99.90;;;;;;5063055;28;20176;-72
2021/12/15 11:20:32;;;;;;;0.40;0.40;;;9.70;99.90;;;;;;5060505;28;20184;-71
2021/12/15 11:23:03;;;;;;;0.17;0.17;;;9.80;99.90;;;;;;5044766;28;20187;-71
2021/12/15 11:25:33;;;;;;;1.00;0.83;;;9.80;99.90;;;;;;5070768;28;20595;-71
2021/12/15 11:28:09;;;;;;;1.53;1.43;;;9.80;99.90;;;;;;5070486;28;20188;-71
2021/12/15 11:30:37;;;;;;;0.57;0.57;;;9.90;99.90;;;;;;5070772;28;20204;-71
2021/12/15 11:33:32;;;;;;;0.33;0.33;;;9.90;99.90;;;;;;5070839;28;20176;-71
2021/12/15 11:36:12;;;;;;;0.77;0.77;;;9.90;99.90;;;;;;5073370;28;20204;-72
2021/12/15 11:38:42;;;;;;;0.30;0.30;;;9.90;99.90;;;;;;5073114;28;20243;-71
2021/12/15 11:41:19;;;;;;;0.77;0.47;;;9.90;99.90;;;;;;5054231;28;20300;-72
2021/12/15 11:43:50;;;;;;;0.50;0.50;;;9.90;99.90;;;;;;5071793;28;20246;-72
2021/12/15 11:46:16;;;;;;;0.10;0.10;;;9.90;99.90;;;;;;5068866;28;20180;-71
2021/12/15 11:48:41;;;;;;;0.10;0.10;;;9.90;99.90;;;;;;5073684;28;20731;-71
2021/12/15 11:51:08;;;;;;;2.53;1.40;;;10.00;99.90;;;;;;5073246;28;20213;-71
2021/12/15 11:53:40;;;;;;;0.17;0.17;;;10.00;99.90;;;;;;5074792;28;20224;-71
2021/12/15 11:56:33;;;;;;;1.10;0.40;;;10.00;99.90;;;;;;5074228;28;20207;-72
2021/12/15 11:59:22;;;;;;;1.07;0.83;;;10.00;99.90;;;;;;5074357;28;20251;-72
2021/12/15 12:01:48;;;;;;;0.70;0.70;;;10.10;99.90;;;;;;5074020;28;20173;-71
2021/12/15 12:04:24;;;;;;;0.93;0.83;;;10.10;99.90;;;;;;5070527;28;20736;-71
2021/12/15 12:06:54;;;;;;;0.30;0.30;;;10.10;99.90;;;;;;5073207;28;20180;-71
2021/12/15 12:09:22;;;;;;;1.17;1.17;;;10.10;99.90;;;;;;5074220;28;20172;-72
2021/12/15 12:11:54;;;;;;;0.40;0.40;;;10.10;99.90;;;;;;5073570;28;20221;-71
2021/12/15 12:17:13;;;;;;;2.93;1.03;;;10.10;99.90;;;;;;5069212;28;20219;-72
2021/12/15 12:19:52;;;;;;;0.40;0.40;;;10.20;99.90;;;;;;5074014;28;20173;-72
2021/12/15 12:22:19;;;;;;;0.60;0.60;;;10.10;99.90;;;;;;5074145;28;20255;-71
2021/12/15 12:24:47;;;;;;;0.57;0.57;;;10.20;99.90;;;;;;5074022;28;20246;-72
2021/12/15 12:27:14;;;;;;;0.20;0.20;;;10.10;99.90;;;;;;5073254;28;20180;-72
2021/12/15 12:29:42;;;;;;;0.93;0.93;;;10.20;99.90;;;;;;5074018;28;20204;-72
2021/12/15 12:32:08;;;;;;;0.17;0.17;;;10.20;99.90;;;;;;5073996;28;20606;-72
2021/12/15 12:34:33;;;;;;;3.20;2.07;;;10.20;99.90;;;;;;5073601;28;20232;-72
2021/12/15 12:36:59;;;;;;;0.77;0.77;;;10.20;99.90;;;;;;5073635;28;20195;-71
2021/12/15 12:39:35;;;;;;;1.07;1.07;;;10.20;99.90;;;;;;5066276;28;20679;-72
2021/12/15 12:42:01;;;;;;;0.37;0.33;;;10.20;99.90;;;;;;5057883;28;20446;-72
2021/12/15 12:44:39;;;;;;;0.87;0.87;;;10.20;99.90;;;;;;5072149;28;20212;-72
2021/12/15 12:47:21;;;;;;;1.67;1.10;;;10.20;99.90;;;;;;5067735;28;20259;-72
2021/12/15 13:01:10;;;;;;;0.30;0.30;;;10.20;99.90;;;;;;5062082;28;20172;-72
2021/12/15 13:03:41;;;;;;;1.40;1.40;;;10.20;99.90;;;;;;5073078;28;20200;-71
2021/12/15 13:06:12;;;;;;;2.10;1.23;;;10.20;99.90;;;;;;5069721;28;20673;-71
2021/12/15 13:08:42;;;;;;;2.73;0.60;;;10.20;99.90;;;;;;5064339;28;20277;-71
2021/12/15 13:11:34;;;;;;;0.63;0.63;;;10.20;99.90;;;;;;5072930;28;20199;-72
2021/12/15 13:14:02;;;;;;;0.30;0.30;;;10.20;99.90;;;;;;5072353;28;20259;-72
2021/12/15 13:16:59;;;;;;;1.30;1.20;;;10.30;99.90;;;;;;5071132;28;20204;-72
2021/12/15 13:19:34;;;;;;;1.07;1.03;;;10.30;99.90;;;;;;5068549;28;20255;-71
2021/12/15 13:31:05;;;;;;;1.70;0.63;;;10.30;99.90;;;;;;5072677;28;20191;-72
2021/12/15 13:33:31;;;;;;;1.17;1.07;;;10.30;99.90;;;;;;5072504;28;20219;-71
2021/12/15 13:36:25;;;;;;;1.23;1.13;;;10.30;99.90;;;;;;5068690;28;20675;-72
2021/12/15 13:38:58;;;;;;;0.43;0.43;;;10.20;99.90;;;;;;5062368;28;20205;-71
2021/12/15 13:42:00;;;;;;;2.03;1.73;;;10.20;99.90;;;;;;5052358;28;20591;-72
2021/12/15 13:44:40;;;;;;;0.47;0.47;;;10.20;99.90;;;;;;5063788;28;20193;-71
2021/12/15 13:47:13;;;;;;;1.27;1.27;;;10.10;99.90;;;;;;5066838;28;20732;-71
2021/12/15 13:49:56;;;;;;;1.67;1.37;;;10.10;99.90;;;;;;5072503;28;20183;-72
2021/12/15 13:52:32;;;;;;;1.07;1.07;;;10.10;99.90;;;;;;5072421;28;20172;-72
2021/12/15 13:55:09;;;;;;;0.50;0.50;;;10.10;99.90;;;;;;5070817;28;20207;-72
2021/12/15 13:57:50;;;;;;;1.10;1.00;;;10.10;99.90;;;;;;5062642;28;20251;-72
2021/12/15 14:00:33;;;;;;;0.73;0.73;;;10.00;99.90;;;;;;5060645;28;20239;-71
2021/12/15 14:03:14;;;;;;;0.30;0.30;;;9.90;99.90;;;;;;5071701;28;20659;-72
2021/12/15 14:06:03;;;;;;;1.93;0.87;;;9.90;99.90;;;;;;5071980;28;20659;-71
2021/12/15 14:08:37;;;;;;;1.33;1.33;;;9.90;99.90;;;;;;5068348;28;20173;-72
2021/12/15 14:11:06;;;;;;;3.83;1.87;;;9.90;99.90;;;;;;5071080;28;20181;-71
2021/12/15 14:13:42;;;;;;;2.07;1.97;;;9.90;99.90;;;;;;5059780;28;20280;-71
2021/12/15 14:16:08;;;;;;;1.80;1.47;;;9.90;99.90;;;;;;5069625;28;20278;-70
2021/12/15 14:18:34;;;;;;;0.70;0.60;;;9.90;99.90;;;;;;5065503;28;20182;-71
2021/12/15 14:21:16;;;;;;;1.20;0.80;;;9.90;99.90;;;;;;5061193;28;20237;-72
2021/12/15 14:23:47;;;;;;;3.47;2.97;;;9.90;99.90;;;;;;5071201;28;20441;-71
2021/12/15 14:26:18;;;;;;;6.97;2.43;;;9.90;99.90;;;;;;5071518;28;20782;-71
2021/12/15 14:28:48;;;;;;;5.27;2.73;;;9.90;99.90;;;;;;5070025;28;20271;-72
2021/12/15 14:31:20;;;;;;;1.23;0.83;;;9.90;99.90;;;;;;5070354;28;20177;-71
2021/12/15 14:33:52;;;;;;;3.00;2.27;;;9.90;99.90;;;;;;5071009;28;20675;-72
2021/12/15 14:36:21;;;;;;;2.93;2.70;;;9.90;99.90;;;;;;5071022;28;20695;-72
2021/12/15 14:38:51;;;;;;;4.13;2.77;;;9.90;99.90;;;;;;5052381;28;20214;-73
2021/12/15 14:41:28;;;;;;;2.67;1.40;;;9.90;99.90;;;;;;5050448;28;20633;-72